sensor_id;sensor_type;location;lat;lon;timestamp;temperature;humidity
53422;DHT22;39319;52.944;5.928;2022-12-07T00:00:55;5.60;99.90
53422;DHT22;39319;52.944;5.928;2022-12-07T00:03:21;5.50;99.90
53422;DHT22;39319;52.944;5.928;2022-12-07T00:05:47;5.50;99.90
53422;DHT22;39319;52.944;5.928;2022-12-07T00:08:12;5.60;99.90
53422;DHT22;39319;52.944;5.928;2022-12-07T00:10:42;5.60;99.90
53422;DHT22;39319;52.944;5.928;2022-12-07T00:13:08;5.50;99.90
53422;DHT22;39319;52.944;5.928;2022-12-07T00:15:33;5.50;99.90
53422;DHT22;39319;52.944;5.928;2022-12-07T00:18:00;5.50;99.90
53422;DHT22;39319;52.944;5.928;2022-12-07T00:20:26;5.50;99.90
53422;DHT22;39319;52.944;5.928;2022-12-07T00:22:53;5.50;99.90
53422;DHT22;39319;52.944;5.928;2022-12-07T00:25:18;5.50;99.90
53422;DHT22;39319;52.944;5.928;2022-12-07T00:27:44;5.50;99.90
53422;DHT22;39319;52.944;5.928;2022-12-07T00:30:11;6.10;99.90
53422;DHT22;39319;52.944;5.928;2022-12-07T00:32:36;5.50;99.90
53422;DHT22;39319;52.944;5.928;2022-12-07T00:35:04;5.50;99.90
53422;DHT22;39319;52.944;5.928;2022-12-07T00:37:31;5.50;99.90
53422;DHT22;39319;52.944;5.928;2022-12-07T00:40:00;5.50;99.90
53422;DHT22;39319;52.944;5.928;2022-12-07T00:42:25;5.60;99.90
53422;DHT22;39319;52.944;5.928;2022-12-07T00:44:51;5.50;99.90
53422;DHT22;39319;52.944;5.928;2022-12-07T00:47:17;5.50;99.90
53422;DHT22;39319;52.944;5.928;2022-12-07T00:49:43;5.50;99.90
53422;DHT22;39319;52.944;5.928;2022-12-07T00:52:08;5.40;99.90
53422;DHT22;39319;52.944;5.928;2022-12-07T00:54:34;5.40;99.90
53422;DHT22;39319;52.944;5.928;2022-12-07T00:57:00;5.40;99.90
53422;DHT22;39319;52.944;5.928;2022-12-07T00:59:25;5.40;99.90
53422;DHT22;39319;52.944;5.928;2022-12-07T01:01:51;5.40;99.90
53422;DHT22;39319;52.944;5.928;2022-12-07T01:04:17;5.30;99.90
53422;DHT22;39319;52.944;5.928;2022-12-07T01:06:43;5.30;99.90
53422;DHT22;39319;52.944;5.928;2022-12-07T01:09:09;5.30;99.90
53422;DHT22;39319;52.944;5.928;2022-12-07T01:11:35;5.30;99.90
53422;DHT22;39319;52.944;5.928;2022-12-07T01:14:01;5.30;99.90
53422;DHT22;39319;52.944;5.928;2022-12-07T01:16:28;5.30;99.90
53422;DHT22;39319;52.944;5.928;2022-12-07T01:18:56;5.30;99.90
53422;DHT22;39319;52.944;5.928;2022-12-07T01:21:24;5.50;99.90
53422;DHT22;39319;52.944;5.928;2022-12-07T01:23:50;5.40;99.90
53422;DHT22;39319;52.944;5.928;2022-12-07T01:26:19;5.90;99.90
53422;DHT22;39319;52.944;5.928;2022-12-07T01:28:45;5.40;99.90
53422;DHT22;39319;52.944;5.928;2022-12-07T01:31:14;5.60;99.90
53422;DHT22;39319;52.944;5.928;2022-12-07T01:33:45;5.40;99.90
53422;DHT22;39319;52.944;5.928;2022-12-07T01:36:23;5.50;99.90
53422;DHT22;39319;52.944;5.928;2022-12-07T01:38:51;5.70;99.90
53422;DHT22;39319;52.944;5.928;2022-12-07T01:41:19;5.40;99.90
53422;DHT22;39319;52.944;5.928;2022-12-07T01:44:08;5.30;99.90
53422;DHT22;39319;52.944;5.928;2022-12-07T01:46:34;5.30;99.90
53422;DHT22;39319;52.944;5.928;2022-12-07T01:49:00;5.30;99.90
53422;DHT22;39319;52.944;5.928;2022-12-07T01:51:27;5.30;99.90
53422;DHT22;39319;52.944;5.928;2022-12-07T01:53:54;5.60;99.90
53422;DHT22;39319;52.944;5.928;2022-12-07T01:56:23;5.30;99.90
53422;DHT22;39319;52.944;5.928;2022-12-07T01:58:51;5.30;99.90
53422;DHT22;39319;52.944;5.928;2022-12-07T02:01:17;5.30;99.90
53422;DHT22;39319;52.944;5.928;2022-12-07T02:03:44;5.30;99.90
53422;DHT22;39319;52.944;5.928;2022-12-07T02:06:12;5.40;99.90
53422;DHT22;39319;52.944;5.928;2022-12-07T02:08:39;5.30;99.90
53422;DHT22;39319;52.944;5.928;2022-12-07T02:11:07;5.30;99.90
53422;DHT22;39319;52.944;5.928;2022-12-07T02:13:36;5.30;99.90
53422;DHT22;39319;52.944;5.928;2022-12-07T02:16:24;5.30;99.90
53422;DHT22;39319;52.944;5.928;2022-12-07T02:22:14;5.30;99.90
53422;DHT22;39319;52.944;5.928;2022-12-07T02:24:53;5.30;99.90
53422;DHT22;39319;52.944;5.928;2022-12-07T02:30:15;5.40;99.90
53422;DHT22;39319;52.944;5.928;2022-12-07T02:36:00;5.50;99.90
53422;DHT22;39319;52.944;5.928;2022-12-07T02:38:35;5.50;99.90
53422;DHT22;39319;52.944;5.928;2022-12-07T02:41:09;5.50;99.90
53422;DHT22;39319;52.944;5.928;2022-12-07T02:44:00;5.70;99.90
53422;DHT22;39319;52.944;5.928;2022-12-07T02:46:37;5.60;99.90
53422;DHT22;39319;52.944;5.928;2022-12-07T02:49:04;5.60;99.90
53422;DHT22;39319;52.944;5.928;2022-12-07T02:51:31;5.60;99.90
53422;DHT22;39319;52.944;5.928;2022-12-07T02:53:58;5.60;99.90
53422;DHT22;39319;52.944;5.928;2022-12-07T02:57:06;5.60;99.90
53422;DHT22;39319;52.944;5.928;2022-12-07T03:02:43;5.60;99.90
53422;DHT22;39319;52.944;5.928;2022-12-07T03:10:56;5.70;99.90
53422;DHT22;39319;52.944;5.928;2022-12-07T03:18:37;5.70;99.90
53422;DHT22;39319;52.944;5.928;2022-12-07T03:21:08;5.80;99.90
53422;DHT22;39319;52.944;5.928;2022-12-07T03:23:37;5.80;99.90
53422;DHT22;39319;52.944;5.928;2022-12-07T03:26:04;5.80;99.90
53422;DHT22;39319;52.944;5.928;2022-12-07T03:28:34;5.80;99.90
53422;DHT22;39319;52.944;5.928;2022-12-07T03:31:11;5.80;99.90
53422;DHT22;39319;52.944;5.928;2022-12-07T03:33:47;5.80;99.90
53422;DHT22;39319;52.944;5.928;2022-12-07T03:36:32;5.70;99.90
53422;DHT22;39319;52.944;5.928;2022-12-07T03:39:27;5.70;99.90
53422;DHT22;39319;52.944;5.928;2022-12-07T03:41:55;5.90;99.90
53422;DHT22;39319;52.944;5.928;2022-12-07T03:44:22;5.60;99.90
53422;DHT22;39319;52.944;5.928;2022-12-07T03:49:45;5.60;99.90
53422;DHT22;39319;52.944;5.928;2022-12-07T03:52:42;5.60;99.90
53422;DHT22;39319;52.944;5.928;2022-12-07T03:55:29;5.50;99.90
53422;DHT22;39319;52.944;5.928;2022-12-07T03:57:59;5.50;99.90
53422;DHT22;39319;52.944;5.928;2022-12-07T04:00:26;5.50;99.90
53422;DHT22;39319;52.944;5.928;2022-12-07T04:02:52;5.50;99.90
53422;DHT22;39319;52.944;5.928;2022-12-07T04:05:18;5.50;99.90
53422;DHT22;39319;52.944;5.928;2022-12-07T04:07:44;5.50;99.90
53422;DHT22;39319;52.944;5.928;2022-12-07T04:10:10;5.70;99.90
53422;DHT22;39319;52.944;5.928;2022-12-07T04:12:36;5.50;99.90
53422;DHT22;39319;52.944;5.928;2022-12-07T04:15:03;5.60;99.90
53422;DHT22;39319;52.944;5.928;2022-12-07T04:17:29;5.50;99.90
53422;DHT22;39319;52.944;5.928;2022-12-07T04:19:55;5.50;99.90
53422;DHT22;39319;52.944;5.928;2022-12-07T04:22:20;5.50;99.90
53422;DHT22;39319;52.944;5.928;2022-12-07T04:24:46;5.40;99.90
53422;DHT22;39319;52.944;5.928;2022-12-07T04:27:12;5.50;99.90
53422;DHT22;39319;52.944;5.928;2022-12-07T04:29:38;5.40;99.90
53422;DHT22;39319;52.944;5.928;2022-12-07T04:32:04;5.40;99.90
53422;DHT22;39319;52.944;5.928;2022-12-07T04:34:30;5.40;99.90
53422;DHT22;39319;52.944;5.928;2022-12-07T04:36:56;5.40;99.90
53422;DHT22;39319;52.944;5.928;2022-12-07T04:39:30;5.40;99.90
53422;DHT22;39319;52.944;5.928;2022-12-07T04:41:56;5.40;99.90
53422;DHT22;39319;52.944;5.928;2022-12-07T04:44:23;5.40;99.90
53422;DHT22;39319;52.944;5.928;2022-12-07T04:46:49;5.30;99.90
53422;DHT22;39319;52.944;5.928;2022-12-07T04:49:16;5.20;99.90
53422;DHT22;39319;52.944;5.928;2022-12-07T04:51:42;5.30;99.90
53422;DHT22;39319;52.944;5.928;2022-12-07T04:54:08;5.20;99.90
53422;DHT22;39319;52.944;5.928;2022-12-07T04:56:34;5.10;99.90
53422;DHT22;39319;52.944;5.928;2022-12-07T04:59:01;5.10;99.90
53422;DHT22;39319;52.944;5.928;2022-12-07T05:01:27;5.10;99.90
53422;DHT22;39319;52.944;5.928;2022-12-07T05:03:53;5.40;99.90
53422;DHT22;39319;52.944;5.928;2022-12-07T05:06:21;5.20;99.90
53422;DHT22;39319;52.944;5.928;2022-12-07T05:08:47;5.00;99.90
53422;DHT22;39319;52.944;5.928;2022-12-07T05:11:13;4.90;99.90
53422;DHT22;39319;52.944;5.928;2022-12-07T05:13:59;4.90;99.90
53422;DHT22;39319;52.944;5.928;2022-12-07T05:16:26;4.90;99.90
53422;DHT22;39319;52.944;5.928;2022-12-07T05:18:51;5.40;99.90
53422;DHT22;39319;52.944;5.928;2022-12-07T05:21:17;4.90;99.90
53422;DHT22;39319;52.944;5.928;2022-12-07T05:23:43;4.90;99.90
53422;DHT22;39319;52.944;5.928;2022-12-07T05:26:09;5.00;99.90
53422;DHT22;39319;52.944;5.928;2022-12-07T05:28:35;5.00;99.90
53422;DHT22;39319;52.944;5.928;2022-12-07T05:31:01;5.20;99.90
53422;DHT22;39319;52.944;5.928;2022-12-07T05:33:27;5.10;99.90
53422;DHT22;39319;52.944;5.928;2022-12-07T05:35:53;5.40;99.90
53422;DHT22;39319;52.944;5.928;2022-12-07T05:38:19;5.20;99.90
53422;DHT22;39319;52.944;5.928;2022-12-07T05:40:45;5.30;99.90
53422;DHT22;39319;52.944;5.928;2022-12-07T05:43:10;5.30;99.90
53422;DHT22;39319;52.944;5.928;2022-12-07T05:45:36;5.50;99.90
53422;DHT22;39319;52.944;5.928;2022-12-07T05:48:02;5.30;99.90
53422;DHT22;39319;52.944;5.928;2022-12-07T05:50:28;5.30;99.90
53422;DHT22;39319;52.944;5.928;2022-12-07T05:52:54;5.40;99.90
53422;DHT22;39319;52.944;5.928;2022-12-07T05:55:20;5.40;99.90
53422;DHT22;39319;52.944;5.928;2022-12-07T05:57:47;5.40;99.90
53422;DHT22;39319;52.944;5.928;2022-12-07T06:00:31;5.40;99.90
53422;DHT22;39319;52.944;5.928;2022-12-07T06:02:57;5.40;99.90
53422;DHT22;39319;52.944;5.928;2022-12-07T06:05:23;5.40;99.90
53422;DHT22;39319;52.944;5.928;2022-12-07T06:07:49;5.40;99.90
53422;DHT22;39319;52.944;5.928;2022-12-07T06:10:15;5.40;99.90
53422;DHT22;39319;52.944;5.928;2022-12-07T06:12:41;5.40;99.90
53422;DHT22;39319;52.944;5.928;2022-12-07T06:15:09;5.40;99.90
53422;DHT22;39319;52.944;5.928;2022-12-07T06:17:36;5.40;99.90
53422;DHT22;39319;52.944;5.928;2022-12-07T06:20:03;5.40;99.90
53422;DHT22;39319;52.944;5.928;2022-12-07T06:22:28;5.30;99.90
53422;DHT22;39319;52.944;5.928;2022-12-07T06:24:55;5.30;99.90
53422;DHT22;39319;52.944;5.928;2022-12-07T06:27:20;5.30;99.90
53422;DHT22;39319;52.944;5.928;2022-12-07T06:29:46;5.30;99.90
53422;DHT22;39319;52.944;5.928;2022-12-07T06:32:12;5.70;99.90
53422;DHT22;39319;52.944;5.928;2022-12-07T06:34:38;5.10;99.90
53422;DHT22;39319;52.944;5.928;2022-12-07T06:37:04;5.10;99.90
53422;DHT22;39319;52.944;5.928;2022-12-07T06:39:30;5.40;99.90
53422;DHT22;39319;52.944;5.928;2022-12-07T06:41:56;5.00;99.90
53422;DHT22;39319;52.944;5.928;2022-12-07T06:44:22;4.90;99.90
53422;DHT22;39319;52.944;5.928;2022-12-07T06:46:49;4.90;99.90
53422;DHT22;39319;52.944;5.928;2022-12-07T06:49:15;4.90;99.90
53422;DHT22;39319;52.944;5.928;2022-12-07T06:51:41;5.20;99.90
53422;DHT22;39319;52.944;5.928;2022-12-07T06:54:11;4.80;99.90
53422;DHT22;39319;52.944;5.928;2022-12-07T06:56:37;4.80;99.90
53422;DHT22;39319;52.944;5.928;2022-12-07T06:59:04;4.80;99.90
53422;DHT22;39319;52.944;5.928;2022-12-07T07:01:33;4.80;99.90
53422;DHT22;39319;52.944;5.928;2022-12-07T07:03:59;4.80;99.90
53422;DHT22;39319;52.944;5.928;2022-12-07T07:06:25;5.20;99.90
53422;DHT22;39319;52.944;5.928;2022-12-07T07:08:50;4.70;99.90
53422;DHT22;39319;52.944;5.928;2022-12-07T07:11:16;4.70;99.90
53422;DHT22;39319;52.944;5.928;2022-12-07T07:13:42;4.70;99.90
53422;DHT22;39319;52.944;5.928;2022-12-07T07:16:08;4.60;99.90
53422;DHT22;39319;52.944;5.928;2022-12-07T07:18:34;4.60;99.90
53422;DHT22;39319;52.944;5.928;2022-12-07T07:21:00;4.60;99.90
53422;DHT22;39319;52.944;5.928;2022-12-07T07:23:27;4.60;99.90
53422;DHT22;39319;52.944;5.928;2022-12-07T07:25:53;4.60;99.90
53422;DHT22;39319;52.944;5.928;2022-12-07T07:28:18;4.60;99.90
53422;DHT22;39319;52.944;5.928;2022-12-07T07:30:44;4.50;99.90
53422;DHT22;39319;52.944;5.928;2022-12-07T07:33:10;4.50;99.90
53422;DHT22;39319;52.944;5.928;2022-12-07T07:35:36;4.50;99.90
53422;DHT22;39319;52.944;5.928;2022-12-07T07:38:02;4.40;99.90
53422;DHT22;39319;52.944;5.928;2022-12-07T07:40:28;4.30;99.90
53422;DHT22;39319;52.944;5.928;2022-12-07T07:42:55;4.30;99.90
53422;DHT22;39319;52.944;5.928;2022-12-07T07:45:22;4.50;99.90
53422;DHT22;39319;52.944;5.928;2022-12-07T07:47:48;4.30;99.90
53422;DHT22;39319;52.944;5.928;2022-12-07T07:50:15;4.30;99.90
53422;DHT22;39319;52.944;5.928;2022-12-07T07:52:42;4.30;99.90
53422;DHT22;39319;52.944;5.928;2022-12-07T07:55:08;4.30;99.90
53422;DHT22;39319;52.944;5.928;2022-12-07T07:57:35;4.30;99.90
53422;DHT22;39319;52.944;5.928;2022-12-07T08:00:04;4.20;99.90
53422;DHT22;39319;52.944;5.928;2022-12-07T08:02:30;4.20;99.90
53422;DHT22;39319;52.944;5.928;2022-12-07T08:04:55;4.20;99.90
53422;DHT22;39319;52.944;5.928;2022-12-07T08:07:21;4.20;99.90
53422;DHT22;39319;52.944;5.928;2022-12-07T08:09:47;4.20;99.90
53422;DHT22;39319;52.944;5.928;2022-12-07T08:12:15;4.20;99.90
53422;DHT22;39319;52.944;5.928;2022-12-07T08:14:41;4.20;99.90
53422;DHT22;39319;52.944;5.928;2022-12-07T08:17:07;4.20;99.90
53422;DHT22;39319;52.944;5.928;2022-12-07T08:19:33;4.20;99.90
53422;DHT22;39319;52.944;5.928;2022-12-07T08:22:00;4.30;99.90
53422;DHT22;39319;52.944;5.928;2022-12-07T08:24:25;4.20;99.90
53422;DHT22;39319;52.944;5.928;2022-12-07T08:26:51;4.20;99.90
53422;DHT22;39319;52.944;5.928;2022-12-07T08:29:17;4.20;99.90
53422;DHT22;39319;52.944;5.928;2022-12-07T08:31:43;4.10;99.90
53422;DHT22;39319;52.944;5.928;2022-12-07T08:34:10;4.30;99.90
53422;DHT22;39319;52.944;5.928;2022-12-07T08:36:37;4.10;99.90
53422;DHT22;39319;52.944;5.928;2022-12-07T08:39:03;4.10;99.90
53422;DHT22;39319;52.944;5.928;2022-12-07T08:41:29;4.20;99.90
53422;DHT22;39319;52.944;5.928;2022-12-07T08:43:55;4.20;99.90
53422;DHT22;39319;52.944;5.928;2022-12-07T08:49:15;4.40;99.90
53422;DHT22;39319;52.944;5.928;2022-12-07T08:51:42;4.40;99.90
53422;DHT22;39319;52.944;5.928;2022-12-07T08:54:11;4.50;99.90
53422;DHT22;39319;52.944;5.928;2022-12-07T08:56:37;4.60;99.90
53422;DHT22;39319;52.944;5.928;2022-12-07T08:59:05;4.70;99.90
53422;DHT22;39319;52.944;5.928;2022-12-07T09:01:31;4.80;99.90
53422;DHT22;39319;52.944;5.928;2022-12-07T09:03:58;4.90;99.90
53422;DHT22;39319;52.944;5.928;2022-12-07T09:06:24;4.90;99.90
53422;DHT22;39319;52.944;5.928;2022-12-07T09:08:51;5.00;99.90
53422;DHT22;39319;52.944;5.928;2022-12-07T09:11:19;5.00;99.90
53422;DHT22;39319;52.944;5.928;2022-12-07T09:13:45;5.10;99.90
53422;DHT22;39319;52.944;5.928;2022-12-07T09:16:11;5.10;99.90
53422;DHT22;39319;52.944;5.928;2022-12-07T09:18:37;5.10;99.90
53422;DHT22;39319;52.944;5.928;2022-12-07T09:21:04;5.10;99.90
53422;DHT22;39319;52.944;5.928;2022-12-07T09:23:31;5.20;99.90
53422;DHT22;39319;52.944;5.928;2022-12-07T09:26:01;5.20;99.90
53422;DHT22;39319;52.944;5.928;2022-12-07T09:28:27;5.20;99.90
53422;DHT22;39319;52.944;5.928;2022-12-07T09:30:52;5.20;99.90
53422;DHT22;39319;52.944;5.928;2022-12-07T09:33:18;5.20;99.90
53422;DHT22;39319;52.944;5.928;2022-12-07T09:35:48;5.20;99.90
53422;DHT22;39319;52.944;5.928;2022-12-07T09:38:15;5.20;99.90
53422;DHT22;39319;52.944;5.928;2022-12-07T09:40:41;5.20;99.90
53422;DHT22;39319;52.944;5.928;2022-12-07T09:43:20;5.20;99.90
53422;DHT22;39319;52.944;5.928;2022-12-07T09:45:48;5.20;99.90
53422;DHT22;39319;52.944;5.928;2022-12-07T09:48:18;5.20;99.90
53422;DHT22;39319;52.944;5.928;2022-12-07T09:50:47;5.30;99.90
53422;DHT22;39319;52.944;5.928;2022-12-07T09:53:37;5.40;99.90
53422;DHT22;39319;52.944;5.928;2022-12-07T09:56:02;5.40;99.90
53422;DHT22;39319;52.944;5.928;2022-12-07T09:58:29;5.50;99.90
53422;DHT22;39319;52.944;5.928;2022-12-07T10:03:34;5.70;99.90
53422;DHT22;39319;52.944;5.928;2022-12-07T10:06:00;5.80;99.90
53422;DHT22;39319;52.944;5.928;2022-12-07T10:08:26;5.80;99.90
53422;DHT22;39319;52.944;5.928;2022-12-07T10:10:55;5.80;99.90
53422;DHT22;39319;52.944;5.928;2022-12-07T10:13:41;5.80;99.90
53422;DHT22;39319;52.944;5.928;2022-12-07T10:18:49;5.80;99.90
53422;DHT22;39319;52.944;5.928;2022-12-07T10:23:58;5.80;99.90
53422;DHT22;39319;52.944;5.928;2022-12-07T10:26:38;5.80;99.90
53422;DHT22;39319;52.944;5.928;2022-12-07T10:31:41;5.90;99.90
53422;DHT22;39319;52.944;5.928;2022-12-07T10:34:21;5.90;99.90
53422;DHT22;39319;52.944;5.928;2022-12-07T10:36:49;6.00;99.90
53422;DHT22;39319;52.944;5.928;2022-12-07T10:39:19;6.00;99.90
53422;DHT22;39319;52.944;5.928;2022-12-07T10:41:56;6.00;99.90
53422;DHT22;39319;52.944;5.928;2022-12-07T10:44:25;6.00;99.90
53422;DHT22;39319;52.944;5.928;2022-12-07T10:49:39;6.10;99.90
53422;DHT22;39319;52.944;5.928;2022-12-07T10:52:21;6.10;99.90
53422;DHT22;39319;52.944;5.928;2022-12-07T10:55:11;6.10;99.90
53422;DHT22;39319;52.944;5.928;2022-12-07T11:00:34;7.60;99.90
53422;DHT22;39319;52.944;5.928;2022-12-07T11:03:23;6.30;99.90
53422;DHT22;39319;52.944;5.928;2022-12-07T11:06:02;6.40;99.90
53422;DHT22;39319;52.944;5.928;2022-12-07T11:14:36;6.50;99.90
53422;DHT22;39319;52.944;5.928;2022-12-07T11:22:55;6.60;99.90
53422;DHT22;39319;52.944;5.928;2022-12-07T11:36:40;6.50;99.90
53422;DHT22;39319;52.944;5.928;2022-12-07T11:41:51;6.70;99.90
53422;DHT22;39319;52.944;5.928;2022-12-07T11:49:54;6.70;99.90
53422;DHT22;39319;52.944;5.928;2022-12-07T11:52:26;6.80;99.90
53422;DHT22;39319;52.944;5.928;2022-12-07T11:54:55;6.80;99.90
53422;DHT22;39319;52.944;5.928;2022-12-07T11:57:44;6.90;99.90
53422;DHT22;39319;52.944;5.928;2022-12-07T12:00:17;7.00;99.90
53422;DHT22;39319;52.944;5.928;2022-12-07T12:03:04;7.10;99.90
53422;DHT22;39319;52.944;5.928;2022-12-07T12:05:35;7.20;99.90
53422;DHT22;39319;52.944;5.928;2022-12-07T12:08:18;7.40;99.90
53422;DHT22;39319;52.944;5.928;2022-12-07T12:11:23;7.50;99.90
53422;DHT22;39319;52.944;5.928;2022-12-07T12:22:39;7.90;99.90
53422;DHT22;39319;52.944;5.928;2022-12-07T12:27:47;8.20;99.90
53422;DHT22;39319;52.944;5.928;2022-12-07T12:30:34;8.20;99.90
53422;DHT22;39319;52.944;5.928;2022-12-07T12:33:28;8.10;99.90
53422;DHT22;39319;52.944;5.928;2022-12-07T12:50:24;7.60;99.90
53422;DHT22;39319;52.944;5.928;2022-12-07T12:52:53;7.60;99.90
53422;DHT22;39319;52.944;5.928;2022-12-07T12:55:52;7.50;99.90
53422;DHT22;39319;52.944;5.928;2022-12-07T13:03:56;7.30;99.90
53422;DHT22;39319;52.944;5.928;2022-12-07T13:08:54;7.30;99.90
53422;DHT22;39319;52.944;5.928;2022-12-07T13:11:35;7.30;99.90
53422;DHT22;39319;52.944;5.928;2022-12-07T13:17:32;7.30;99.90
53422;DHT22;39319;52.944;5.928;2022-12-07T13:19:54;7.30;99.90
53422;DHT22;39319;52.944;5.928;2022-12-07T13:27:37;7.30;99.90
53422;DHT22;39319;52.944;5.928;2022-12-07T13:30:15;7.20;99.90
53422;DHT22;39319;52.944;5.928;2022-12-07T13:32:42;7.20;99.90
53422;DHT22;39319;52.944;5.928;2022-12-07T13:35:32;7.20;99.90
53422;DHT22;39319;52.944;5.928;2022-12-07T13:38:01;7.20;99.90
53422;DHT22;39319;52.944;5.928;2022-12-07T13:40:27;7.40;99.90
53422;DHT22;39319;52.944;5.928;2022-12-07T13:43:01;7.20;99.90
53422;DHT22;39319;52.944;5.928;2022-12-07T13:45:30;7.20;99.90
53422;DHT22;39319;52.944;5.928;2022-12-07T13:48:43;7.20;99.90
53422;DHT22;39319;52.944;5.928;2022-12-07T13:51:26;7.20;99.90
53422;DHT22;39319;52.944;5.928;2022-12-07T13:53:55;7.10;99.90
53422;DHT22;39319;52.944;5.928;2022-12-07T13:56:24;7.10;99.90
53422;DHT22;39319;52.944;5.928;2022-12-07T13:58:51;7.10;99.90
53422;DHT22;39319;52.944;5.928;2022-12-07T14:01:17;7.10;99.90
53422;DHT22;39319;52.944;5.928;2022-12-07T14:03:43;7.00;99.90
53422;DHT22;39319;52.944;5.928;2022-12-07T14:08:43;7.00;99.90
53422;DHT22;39319;52.944;5.928;2022-12-07T14:11:17;6.90;99.90
53422;DHT22;39319;52.944;5.928;2022-12-07T14:13:56;6.90;99.90
53422;DHT22;39319;52.944;5.928;2022-12-07T14:16:43;6.90;99.90
53422;DHT22;39319;52.944;5.928;2022-12-07T14:19:40;6.90;99.90
53422;DHT22;39319;52.944;5.928;2022-12-07T14:22:08;6.90;99.90
53422;DHT22;39319;52.944;5.928;2022-12-07T14:24:44;6.80;99.90
53422;DHT22;39319;52.944;5.928;2022-12-07T14:27:18;6.90;99.90
53422;DHT22;39319;52.944;5.928;2022-12-07T14:29:45;6.80;99.90
53422;DHT22;39319;52.944;5.928;2022-12-07T14:32:26;6.70;99.90
53422;DHT22;39319;52.944;5.928;2022-12-07T14:35:22;6.60;99.90
53422;DHT22;39319;52.944;5.928;2022-12-07T14:37:48;6.50;99.90
53422;DHT22;39319;52.944;5.928;2022-12-07T14:40:27;6.40;99.90
53422;DHT22;39319;52.944;5.928;2022-12-07T14:45:24;6.60;99.90
53422;DHT22;39319;52.944;5.928;2022-12-07T14:47:50;6.40;99.90
53422;DHT22;39319;52.944;5.928;2022-12-07T14:50:18;6.40;99.90
53422;DHT22;39319;52.944;5.928;2022-12-07T14:52:50;6.40;99.90
53422;DHT22;39319;52.944;5.928;2022-12-07T14:55:28;6.30;99.90
53422;DHT22;39319;52.944;5.928;2022-12-07T14:57:54;6.30;99.90
53422;DHT22;39319;52.944;5.928;2022-12-07T15:00:22;6.20;99.90
53422;DHT22;39319;52.944;5.928;2022-12-07T15:02:49;6.20;99.90
53422;DHT22;39319;52.944;5.928;2022-12-07T15:05:19;6.20;99.90
53422;DHT22;39319;52.944;5.928;2022-12-07T15:07:46;6.10;99.90
53422;DHT22;39319;52.944;5.928;2022-12-07T15:10:23;6.00;99.90
53422;DHT22;39319;52.944;5.928;2022-12-07T15:12:49;6.00;99.90
53422;DHT22;39319;52.944;5.928;2022-12-07T15:15:15;5.90;99.90
53422;DHT22;39319;52.944;5.928;2022-12-07T15:17:42;5.90;99.90
53422;DHT22;39319;52.944;5.928;2022-12-07T15:20:15;5.90;99.90
53422;DHT22;39319;52.944;5.928;2022-12-07T15:22:42;5.80;99.90
53422;DHT22;39319;52.944;5.928;2022-12-07T15:25:09;5.80;99.90
53422;DHT22;39319;52.944;5.928;2022-12-07T15:27:37;5.70;99.90
53422;DHT22;39319;52.944;5.928;2022-12-07T15:30:04;5.70;99.90
53422;DHT22;39319;52.944;5.928;2022-12-07T15:32:30;5.70;99.90
53422;DHT22;39319;52.944;5.928;2022-12-07T15:34:56;5.60;99.90
53422;DHT22;39319;52.944;5.928;2022-12-07T15:37:22;5.60;99.90
53422;DHT22;39319;52.944;5.928;2022-12-07T15:39:48;5.50;99.90
53422;DHT22;39319;52.944;5.928;2022-12-07T15:42:13;5.50;99.90
53422;DHT22;39319;52.944;5.928;2022-12-07T15:44:39;5.50;99.90
53422;DHT22;39319;52.944;5.928;2022-12-07T15:47:23;5.60;99.90
53422;DHT22;39319;52.944;5.928;2022-12-07T15:49:49;5.50;99.90
53422;DHT22;39319;52.944;5.928;2022-12-07T15:52:15;5.50;99.90
53422;DHT22;39319;52.944;5.928;2022-12-07T15:54:42;5.50;99.90
53422;DHT22;39319;52.944;5.928;2022-12-07T15:57:08;5.50;99.90
53422;DHT22;39319;52.944;5.928;2022-12-07T15:59:34;5.50;99.90
53422;DHT22;39319;52.944;5.928;2022-12-07T16:02:00;5.50;99.90
53422;DHT22;39319;52.944;5.928;2022-12-07T16:04:27;5.60;99.90
53422;DHT22;39319;52.944;5.928;2022-12-07T16:06:57;5.50;99.90
53422;DHT22;39319;52.944;5.928;2022-12-07T16:09:23;5.50;99.90
53422;DHT22;39319;52.944;5.928;2022-12-07T16:11:48;5.50;99.90
53422;DHT22;39319;52.944;5.928;2022-12-07T16:14:16;5.60;99.90
53422;DHT22;39319;52.944;5.928;2022-12-07T16:16:41;5.50;99.90
53422;DHT22;39319;52.944;5.928;2022-12-07T16:19:07;5.50;99.90
53422;DHT22;39319;52.944;5.928;2022-12-07T16:21:34;5.50;99.90
53422;DHT22;39319;52.944;5.928;2022-12-07T16:24:01;5.40;99.90
53422;DHT22;39319;52.944;5.928;2022-12-07T16:26:27;5.40;99.90
53422;DHT22;39319;52.944;5.928;2022-12-07T16:28:53;5.40;99.90
53422;DHT22;39319;52.944;5.928;2022-12-07T16:31:22;5.40;99.90
53422;DHT22;39319;52.944;5.928;2022-12-07T16:33:49;5.60;99.90
53422;DHT22;39319;52.944;5.928;2022-12-07T16:36:16;5.40;99.90
53422;DHT22;39319;52.944;5.928;2022-12-07T16:38:43;5.50;99.90
53422;DHT22;39319;52.944;5.928;2022-12-07T16:41:09;5.40;99.90
53422;DHT22;39319;52.944;5.928;2022-12-07T16:43:35;5.40;99.90
53422;DHT22;39319;52.944;5.928;2022-12-07T16:46:02;5.30;99.90
53422;DHT22;39319;52.944;5.928;2022-12-07T16:48:28;5.30;99.90
53422;DHT22;39319;52.944;5.928;2022-12-07T16:50:54;5.30;99.90
53422;DHT22;39319;52.944;5.928;2022-12-07T16:53:22;5.30;99.90
53422;DHT22;39319;52.944;5.928;2022-12-07T16:55:48;5.30;99.90
53422;DHT22;39319;52.944;5.928;2022-12-07T16:58:15;5.40;99.90
53422;DHT22;39319;52.944;5.928;2022-12-07T17:00:43;5.40;99.90
53422;DHT22;39319;52.944;5.928;2022-12-07T17:03:09;5.40;99.90
53422;DHT22;39319;52.944;5.928;2022-12-07T17:05:43;5.40;99.90
53422;DHT22;39319;52.944;5.928;2022-12-07T17:08:10;5.40;99.90
53422;DHT22;39319;52.944;5.928;2022-12-07T17:10:38;5.30;99.90
53422;DHT22;39319;52.944;5.928;2022-12-07T17:13:05;5.40;99.90
53422;DHT22;39319;52.944;5.928;2022-12-07T17:16:02;5.40;99.90
53422;DHT22;39319;52.944;5.928;2022-12-07T17:18:30;5.40;99.90
53422;DHT22;39319;52.944;5.928;2022-12-07T17:21:05;5.90;99.90
53422;DHT22;39319;52.944;5.928;2022-12-07T17:23:32;5.40;99.90
53422;DHT22;39319;52.944;5.928;2022-12-07T17:26:13;5.40;99.90
53422;DHT22;39319;52.944;5.928;2022-12-07T17:28:39;5.40;99.90
53422;DHT22;39319;52.944;5.928;2022-12-07T17:31:10;5.40;99.90
53422;DHT22;39319;52.944;5.928;2022-12-07T17:33:36;5.40;99.90
53422;DHT22;39319;52.944;5.928;2022-12-07T17:36:10;5.30;99.90
53422;DHT22;39319;52.944;5.928;2022-12-07T17:38:36;5.30;99.90
53422;DHT22;39319;52.944;5.928;2022-12-07T17:41:17;5.30;99.90
53422;DHT22;39319;52.944;5.928;2022-12-07T17:44:05;5.30;99.90
53422;DHT22;39319;52.944;5.928;2022-12-07T17:46:31;5.30;99.90
53422;DHT22;39319;52.944;5.928;2022-12-07T17:48:57;5.30;99.90
53422;DHT22;39319;52.944;5.928;2022-12-07T17:51:24;5.30;99.90
53422;DHT22;39319;52.944;5.928;2022-12-07T17:54:09;5.30;99.90
53422;DHT22;39319;52.944;5.928;2022-12-07T17:56:36;5.20;99.90
53422;DHT22;39319;52.944;5.928;2022-12-07T17:59:03;5.20;99.90
53422;DHT22;39319;52.944;5.928;2022-12-07T18:01:29;5.20;99.90
53422;DHT22;39319;52.944;5.928;2022-12-07T18:03:54;5.20;99.90